Nearby METAR Reports

 

KTTN - Trenton, New Jersey, USA
Distance from station: WNW 11mi, 17km
Updated: Sun, 19-May-2024 6:20am EDT
Mist, Overcast
Mist, Overcast
 Wind from NNW
Wind: NNW 3 mph , 6 km/h
Temperature: 59°F , 15°C
Dew Point: 57°F , 14°C
Humidity: 94%
Barometer: 29.99 inHg , 1015.6 hPa
Summary: Mist
Clouds: Overcast
Visibility: 2 1/2 miles , 4 km
Cloud details: Overcast 4200 ft
2024/05/19 10:20 KTTN 191020Z 33003KT 2 1/2SM BR OVC042 15/14 A2999 RMK AO2 T01500144
KWRI - Wrightst/Mcguire, New Jersey, USA
Distance from station: SSE 14mi, 22km
Updated: Sat, 18-May-2024 11:05pm EDT
NOT Current
Overcast
Overcast
 Wind from calm
Wind: Calm
Temperature: 59°F , 15°C
Dew Point: 57°F , 14°C
Humidity: 94%
Barometer: 29.97 inHg , 1014.9 hPa
Clouds: Overcast
Visibility: 10 miles , 16 km
Cloud details: Overcast 900 ft
2024/05/19 03:05 KWRI 190305Z 00000KT 10SM OVC009 15/14 A2997 RMK AO2A SLP148
 
KNEL - Lakehurst Nas, New Jersey, USA
Distance from station: SE 21mi, 34km
Updated: Sun, 19-May-2024 6:00am EDT
Overcast
Overcast
 Wind from calm
Wind: Calm
Temperature: 59°F , 15°C
Dew Point: 57°F , 14°C
Humidity: 94%
Barometer: 29.97 inHg , 1014.9 hPa
Clouds: Overcast
Cloud details: Overcast 1600 ft
2024/05/19 10:00 KNEL 191000Z AUTO 00000KT OVC016 15/14 A2997 RMK AO2 SLP145 T01500144 $
KPNE - Philadelphia/Ne, Pennsylvania, USA
Distance from station: WSW 22mi, 35km
Updated: Sun, 19-May-2024 5:54am EDT
Mist, Overcast
Mist, Overcast
 Wind from NNW
Wind: NNW 5 mph , 7 km/h
Temperature: 61°F , 16°C
Dew Point: 57°F , 14°C
Humidity: 88%
Barometer: 29.99 inHg , 1015.6 hPa
Summary: Mist
Clouds: Overcast
Visibility: 5 miles , 8 km
Cloud details: Overcast 4300 ft
2024/05/19 09:54 KPNE 190954Z 34004KT 5SM BR OVC043 16/14 A2999 RMK AO2 SLP156 T01610144
 
KVAY - Mount Holly, New Jersey, USA
Distance from station: SSW 22mi, 35km
Updated: Sun, 19-May-2024 6:15am EDT
Mist, Overcast
Mist, Overcast
 Wind from calm
Wind: Calm
Temperature: 61°F , 16°C
Dew Point: 59°F , 15°C
Humidity: 94%
Barometer: 29.98 inHg , 1015.2 hPa
Summary: Mist
Clouds: Overcast
Visibility: 2 1/2 miles , 4 km
Cloud details: Few Clouds 500 ft
Mostly cloudy 1400 ft
Overcast 3700 ft
2024/05/19 10:15 KVAY 191015Z AUTO 00000KT 2 1/2SM BR FEW005 BKN014 OVC037 16/15 A2998 RMK AO2 T01560150
KMJX - Toms River, New Jersey, USA
Distance from station: SE 26mi, 42km
Updated: Sun, 19-May-2024 6:15am EDT
Overcast
Overcast
 Wind from N
Wind: N 5 mph , 7 km/h
Temperature: 57°F , 14°C
Dew Point: 57°F , 14°C
Humidity: 100%
Barometer: 29.98 inHg , 1015.2 hPa
Clouds: Overcast
Visibility: 10 miles , 16 km
Cloud details: Overcast 1600 ft
2024/05/19 10:15 KMJX 191015Z AUTO 35004KT 10SM OVC016 14/14 A2998 RMK AO2
 
KDYL - Doylestown, Pennsylvania, USA
Distance from station: WNW 27mi, 43km
Updated: Sun, 19-May-2024 6:09am EDT

 
Temperature: 61°F , 16°C
Dew Point: 61°F , 16°C
Humidity: 100%
Barometer: 29.99 inHg , 1015.6 hPa
2024/05/19 10:09 KDYL 191009Z AUTO 16/16 A2999 RMK AO2 T01610156 PWINO $
KBLM - Belmar/Farmdale, New Jersey, USA
Distance from station: E 28mi, 45km
Updated: Sun, 19-May-2024 5:56am EDT
Overcast
Overcast
 Wind from N
Wind: N 5 mph , 7 km/h
Temperature: 57°F , 14°C
Dew Point: 57°F , 14°C
Humidity: 100%
Barometer: 29.99 inHg , 1015.6 hPa
Clouds: Overcast
Visibility: 10 miles , 16 km
Cloud details: Overcast 1700 ft
2024/05/19 09:56 KBLM 190956Z AUTO 36004KT 10SM OVC017 14/14 A2999 RMK AO2 SLP156 T01440139
 
KSMQ - Somerville, New Jersey, USA
Distance from station: N 28mi, 45km
Updated: Sun, 19-May-2024 5:53am EDT
Mist, Overcast
Mist, Overcast
 Wind from NNW
Wind: NNW 5 mph , 7 km/h
Temperature: 61°F , 16°C
Dew Point: 59°F , 15°C
Humidity: 94%
Barometer: 29.98 inHg , 1015.2 hPa
Summary: Mist
Clouds: Overcast
Visibility: 4 miles , 6 km
Cloud details: Overcast 4700 ft
2024/05/19 09:53 KSMQ 190953Z AUTO 33004KT 4SM BR OVC047 16/15 A2998 RMK AO2 SLP150 T01560150
KLOM - Philly Wings F, Pennsylvania, USA
Distance from station: W 34mi, 54km
Updated: Sun, 19-May-2024 6:15am EDT
Mist, Overcast
Mist, Overcast
 Wind from calm
Wind: Calm
Temperature: 59°F , 15°C
Barometer: 30.00 inHg , 1015.9 hPa
Summary: Mist
Clouds: Overcast
Visibility: 1 3/4 miles , 2.8 km
Cloud details: Partly cloudy 300 ft
Mostly cloudy 2600 ft
Overcast 3800 ft
2024/05/19 10:15 KLOM 191015Z AUTO 00000KT 1 3/4SM BR SCT003 BKN026 OVC038 15/ A3000 RMK AO2 T0152////
 
KLDJ - Linden, New Jersey, USA
Distance from station: NE 35mi, 56km
Updated: Sun, 19-May-2024 6:15am EDT
Overcast
Overcast
 Wind from NE
Wind: NE 7 mph , 11 km/h
Temperature: 61°F , 16°C
Dew Point: 54°F , 12°C
Humidity: 77%
Barometer: 30.00 inHg , 1015.9 hPa
Clouds: Overcast
Visibility: 10 miles , 16 km
Cloud details: Overcast 2200 ft
2024/05/19 10:15 KLDJ 191015Z AUTO 04006KT 10SM OVC022 16/12 A3000 RMK AO2 T01580116
KCKZ - Perkasie, Pennsylvania, USA
Distance from station: WNW 36mi, 58km
Updated: Sun, 19-May-2024 6:15am EDT
Mist, Overcast
Mist, Overcast
 Wind from calm
Wind: Calm
Temperature: 59°F , 15°C
Dew Point: 59°F , 15°C
Humidity: 100%
Barometer: 30.01 inHg , 1016.3 hPa
Summary: Mist
Clouds: Overcast
Visibility: 2 miles , 3 km
Cloud details: Few Clouds 300 ft
Overcast 2000 ft
2024/05/19 10:15 KCKZ 191015Z AUTO 00000KT 2SM BR FEW003 OVC020 15/15 A3001 RMK AO2
 
KPHL - Philadelphia, Pennsylvania, USA
Distance from station: SW 40mi, 64km
Updated: Sun, 19-May-2024 6:08am EDT
Mist, Overcast
Mist, Overcast
 Wind from varies
Wind: varies 5 mph , 7 km/h
Temperature: 61°F , 16°C
Dew Point: 59°F , 15°C
Humidity: 94%
Barometer: 29.99 inHg , 1015.6 hPa
Summary: Mist
Clouds: Overcast
Visibility: 6 miles , 10 km
Cloud details: Few Clouds 3200 ft
Mostly cloudy 4100 ft
Overcast 7000 ft
2024/05/19 10:08 KPHL 191008Z VRB04KT 6SM BR FEW032 BKN041 OVC070 16/15 A2999 RMK AO2 T01610150
KEWR - Newark, New Jersey, USA
Distance from station: NE 41mi, 66km
Updated: Sun, 19-May-2024 5:51am EDT
Mostly cloudy
Mostly cloudy
 Wind from NNE
Wind: NNE 10 mph , 17 km/h
Temperature: 61°F , 16°C
Dew Point: 55°F , 13°C
Humidity: 83%
Barometer: 29.99 inHg , 1015.6 hPa
Clouds: Mostly cloudy
Visibility: 10 miles , 16 km
Cloud details: Mostly cloudy 2100 ft
Mostly cloudy 4500 ft
2024/05/19 09:51 KEWR 190951Z 02009KT 10SM BKN021 BKN045 16/13 A2999 RMK AO2 SLP154 T01610128
 
KMMU - Morristown Muni, New Jersey, USA
Distance from station: NNE 41mi, 66km
Updated: Sun, 19-May-2024 6:15am EDT
Mostly cloudy
Mostly cloudy
 Wind from NE
Wind: NE 3 mph , 6 km/h
Temperature: 57°F , 14°C
Dew Point: 55°F , 13°C
Humidity: 94%
Barometer: 30.00 inHg , 1015.9 hPa
Clouds: Mostly cloudy
Visibility: 10 miles , 16 km
Cloud details: Mostly cloudy 4800 ft
2024/05/19 10:15 KMMU 191015Z AUTO 05003KT 10SM BKN048 14/13 A3000 RMK AO2
KUKT - Quakertown Arp, Pennsylvania, USA
Distance from station: WNW 42mi, 68km
Updated: Sun, 19-May-2024 6:15am EDT
Mist, Overcast
Mist, Overcast
 Wind from calm
Wind: Calm
Temperature: 59°F , 15°C
Dew Point: 59°F , 15°C
Humidity: 100%
Barometer: 30.01 inHg , 1016.3 hPa
Summary: Mist
Clouds: Overcast
Visibility: 6 miles , 10 km
Cloud details: Few Clouds 800 ft
Overcast 2100 ft
2024/05/19 10:15 KUKT 191015Z AUTO 00000KT 6SM BR FEW008 OVC021 15/15 A3001 RMK AO2
 
KJRB - Manhattan/Dwntwn, New York, USA
Distance from station: NE 47mi, 75km
Updated: Sun, 19-May-2024 5:56am EDT
Overcast
Overcast
 Wind from NE
Wind: NE 10 mph , 17 km/h, Gust: 20 mph , 31 km/h
Temperature: 61°F , 16°C
Dew Point: 54°F , 12°C
Humidity: 77%
Barometer: 30.00 inHg , 1015.9 hPa
Clouds: Overcast
Visibility: 10 miles , 16 km
Cloud details: Overcast 2200 ft
2024/05/19 09:56 KJRB 190956Z AUTO 04009G17KT 10SM OVC022 16/12 A3000 RMK AO2 SLP158 T01610122 PNO $
KPTW - Pottstown, Pennsylvania, USA
Distance from station: W 48mi, 77km
Updated: Sun, 19-May-2024 6:13am EDT
Mist, Overcast
Mist, Overcast
 Wind from calm
Wind: Calm
Temperature: 61°F , 16°C
Dew Point: 59°F , 15°C
Humidity: 94%
Barometer: 30.01 inHg , 1016.3 hPa
Summary: Mist
Clouds: Overcast
Visibility: 2 miles , 3 km
Cloud details: Overcast 3400 ft
2024/05/19 10:13 KPTW 191013Z AUTO 00000KT 2SM BR OVC034 16/15 A3001 RMK AO2 T01610150
 
KCDW - Caldwell, New Jersey, USA
Distance from station: NNE 50mi, 80km
Updated: Sun, 19-May-2024 5:53am EDT
Overcast
Overcast
 Wind from calm
Wind: Calm
Temperature: 61°F , 16°C
Dew Point: 54°F , 12°C
Humidity: 77%
Barometer: 30.00 inHg , 1015.9 hPa
Clouds: Overcast
Visibility: 10 miles , 16 km
Cloud details: Mostly cloudy 2400 ft
Overcast 3400 ft
2024/05/19 09:53 KCDW 190953Z AUTO 00000KT 10SM BKN024 OVC034 16/12 A3000 RMK AO2 SLP164 T01610117